createdAt,value
2019-02-09T12:42:39.635Z,22.33
2019-02-09T12:45:16.647Z,14.50
2019-02-09T12:47:51.228Z,17.57
2019-02-09T12:50:25.603Z,13.97
2019-02-09T12:53:00.928Z,14.80
2019-02-09T12:55:35.677Z,14.20
2019-02-09T12:58:11.062Z,22.10
2019-02-09T13:00:45.860Z,12.33
2019-02-09T13:03:31.038Z,17.33
2019-02-09T13:06:03.483Z,15.37
2019-02-09T13:08:41.692Z,15.30
2019-02-09T13:11:16.100Z,14.93
2019-02-09T13:13:50.815Z,17.60
2019-02-09T13:16:26.001Z,14.60
2019-02-09T13:18:59.952Z,19.83
2019-02-09T13:21:33.724Z,22.90
2019-02-09T13:24:08.295Z,16.47
2019-02-09T13:26:41.787Z,14.70
2019-02-09T13:29:17.202Z,20.23
2019-02-09T13:31:50.891Z,21.60
2019-02-09T13:34:25.863Z,23.47
2019-02-09T13:36:59.358Z,33.70
2019-02-09T13:39:33.206Z,21.27
2019-02-09T13:42:09.849Z,24.37
2019-02-09T13:44:44.746Z,26.87
2019-02-09T13:47:21.337Z,26.33
2019-02-09T13:49:56.474Z,21.13
2019-02-09T13:52:30.444Z,24.67
2019-02-09T13:55:05.335Z,24.03
2019-02-09T13:57:39.771Z,25.27
2019-02-09T14:00:17.787Z,20.83
2019-02-09T14:02:51.932Z,23.43
2019-02-09T14:05:27.418Z,23.87
2019-02-09T14:08:02.362Z,24.93
2019-02-09T14:10:37.531Z,23.67
2019-02-09T14:13:14.630Z,25.67
2019-02-09T14:15:48.879Z,23.00
2019-02-09T14:18:28.299Z,29.67
2019-02-09T14:21:03.162Z,18.97
2019-02-09T14:23:37.683Z,20.87
2019-02-09T14:26:14.162Z,22.30
2019-02-09T14:28:47.879Z,37.00
2019-02-09T14:31:22.688Z,26.63
2019-02-09T14:33:59.110Z,22.60
2019-02-09T14:36:33.463Z,38.43
2019-02-09T14:39:17.168Z,26.77
2019-02-09T14:41:54.875Z,22.87
2019-02-09T14:44:35.312Z,24.73
2019-02-09T14:47:14.350Z,22.50
2019-02-09T14:49:49.390Z,24.97
2019-02-09T14:52:25.117Z,29.40
2019-02-09T14:55:00.247Z,25.70
2019-02-09T14:57:37.033Z,27.73
2019-02-09T15:00:14.287Z,39.43
2019-02-09T15:02:53.679Z,31.07
2019-02-09T15:05:24.423Z,23.17
2019-02-09T15:07:59.159Z,20.47
2019-02-09T15:10:37.617Z,23.13
2019-02-09T15:13:17.548Z,21.13
2019-02-09T15:16:05.755Z,24.00
2019-02-09T15:18:41.197Z,26.33
2019-02-09T15:21:16.487Z,29.17
2019-02-09T15:23:52.793Z,23.90
2019-02-09T15:26:27.943Z,25.93
2019-02-09T15:29:02.439Z,28.90
2019-02-09T15:31:38.497Z,32.43
2019-02-09T15:34:13.315Z,24.70
2019-02-09T15:36:47.886Z,25.57
2019-02-09T15:39:22.448Z,26.67
2019-02-09T15:41:55.378Z,26.07
2019-02-09T15:44:30.368Z,27.67
2019-02-09T15:47:04.009Z,30.50
2019-02-09T15:49:38.713Z,26.50
2019-02-09T15:52:13.892Z,26.73
2019-02-09T15:54:48.501Z,24.73
2019-02-09T15:57:30.484Z,25.60
2019-02-09T16:00:06.613Z,32.97
2019-02-09T16:02:40.611Z,29.27
2019-02-09T16:05:16.051Z,37.47
2019-02-09T16:07:50.765Z,32.73
2019-02-09T16:10:26.359Z,32.03
2019-02-09T16:13:02.201Z,33.40
2019-02-09T16:15:37.227Z,35.10
2019-02-09T16:18:11.161Z,36.20
2019-02-09T16:20:45.513Z,47.43
2019-02-09T16:23:20.361Z,37.30
2019-02-09T16:25:55.571Z,39.90
2019-02-09T16:28:30.334Z,40.53
2019-02-09T16:31:05.527Z,48.10
2019-02-09T16:33:41.625Z,41.57
2019-02-09T16:36:16.513Z,48.47
2019-02-09T16:38:50.307Z,51.83
2019-02-09T16:41:25.317Z,36.73
2019-02-09T16:44:01.819Z,42.83
2019-02-09T16:46:38.156Z,37.27
2019-02-09T16:49:15.201Z,45.73
2019-02-09T16:51:50.249Z,46.57
2019-02-09T16:54:25.323Z,36.47
2019-02-09T16:57:00.692Z,39.13
2019-02-09T16:59:35.368Z,50.03
2019-02-09T17:02:13.949Z,38.03
2019-02-09T17:04:50.910Z,42.47
2019-02-09T17:07:26.566Z,40.83
2019-02-09T17:10:01.215Z,44.53
2019-02-09T17:12:35.791Z,45.00
2019-02-09T17:15:10.819Z,48.30
2019-02-09T17:17:45.365Z,45.83
2019-02-09T17:20:19.763Z,69.27
2019-02-09T17:22:55.093Z,74.43
2019-02-09T17:25:29.971Z,44.03
2019-02-09T17:28:05.731Z,51.30
2019-02-09T17:30:41.483Z,48.47
2019-02-09T17:33:16.723Z,45.57
2019-02-09T17:36:01.203Z,49.47
2019-02-09T17:38:40.893Z,45.47
2019-02-09T17:41:18.956Z,51.43
2019-02-09T17:43:57.368Z,53.23
2019-02-09T17:46:32.420Z,39.43
2019-02-09T17:49:09.391Z,53.93
2019-02-09T17:51:44.472Z,69.97
2019-02-09T17:54:18.613Z,69.40
2019-02-09T17:56:53.223Z,63.00
2019-02-09T17:59:28.319Z,69.77
2019-02-09T18:02:02.355Z,59.17
2019-02-09T18:04:38.696Z,99.23
2019-02-09T18:07:12.979Z,79.67
2019-02-09T18:09:47.418Z,68.93
2019-02-09T18:12:22.172Z,67.40
2019-02-09T18:14:57.999Z,84.37
2019-02-09T18:17:35.573Z,64.13
2019-02-09T18:20:12.105Z,68.67
2019-02-09T18:22:46.772Z,76.83
2019-02-09T18:25:21.201Z,76.87
2019-02-09T18:27:59.001Z,65.63
2019-02-09T18:30:33.737Z,61.77
2019-02-09T18:33:08.259Z,61.03
2019-02-09T18:35:43.070Z,78.33
2019-02-09T18:38:17.309Z,78.93
2019-02-09T18:40:52.376Z,74.90
2019-02-09T18:43:27.912Z,79.73
2019-02-09T18:46:02.607Z,83.07
2019-02-09T18:48:37.152Z,89.17
2019-02-09T18:51:13.240Z,120.90
2019-02-09T18:53:47.771Z,88.00
2019-02-09T18:56:22.300Z,100.43
2019-02-09T18:59:02.445Z,107.83
2019-02-09T19:01:36.493Z,96.70
2019-02-09T19:04:10.875Z,101.20
2019-02-09T19:06:45.608Z,108.57
2019-02-09T19:09:22.399Z,105.93
2019-02-09T19:11:57.037Z,105.67
2019-02-09T19:14:31.839Z,97.50
2019-02-09T19:17:08.914Z,96.83
2019-02-09T19:19:50.690Z,96.77
2019-02-09T19:22:26.555Z,95.03
2019-02-09T19:25:01.226Z,87.17
2019-02-09T19:27:38.368Z,98.17
2019-02-09T19:30:19.137Z,108.80
2019-02-09T19:32:53.817Z,100.70
2019-02-09T19:35:29.288Z,96.60
2019-02-09T19:38:03.909Z,98.73
2019-02-09T19:40:39.106Z,145.37
2019-02-09T19:43:13.062Z,98.27
2019-02-09T19:45:47.780Z,124.73
2019-02-09T19:48:22.046Z,109.77
2019-02-09T19:50:58.246Z,93.10
2019-02-09T19:53:34.653Z,95.47
2019-02-09T19:56:09.333Z,85.07
2019-02-09T19:58:45.233Z,73.97
2019-02-09T20:01:20.618Z,70.60
2019-02-09T20:03:54.853Z,94.13
2019-02-09T20:06:29.073Z,84.80
2019-02-09T20:09:05.129Z,104.00
2019-02-09T20:11:40.306Z,92.47
2019-02-09T20:14:16.045Z,87.87
2019-02-09T20:16:50.166Z,74.53
2019-02-09T20:19:25.050Z,84.03
2019-02-09T20:22:01.797Z,79.57
2019-02-09T20:24:37.219Z,74.87
2019-02-09T20:27:11.280Z,95.50
2019-02-09T20:29:46.566Z,95.27
2019-02-09T20:32:23.726Z,110.10
2019-02-09T20:34:58.660Z,89.73
2019-02-09T20:37:32.404Z,86.17
2019-02-09T20:40:09.313Z,85.67
2019-02-09T20:42:44.076Z,88.40
2019-02-09T20:45:18.443Z,103.50
2019-02-09T20:47:52.396Z,76.47
2019-02-09T20:50:27.563Z,84.10
2019-02-09T20:53:01.579Z,66.40
2019-02-09T20:55:37.475Z,68.47
2019-02-09T20:58:14.791Z,66.10
2019-02-09T21:00:49.200Z,68.37
2019-02-09T21:03:23.588Z,67.43
2019-02-09T21:05:59.279Z,66.90
2019-02-09T21:08:33.988Z,81.93
2019-02-09T21:11:09.402Z,83.67
2019-02-09T21:13:41.961Z,79.03
2019-02-09T21:16:16.321Z,67.20
2019-02-09T21:18:52.319Z,70.10
2019-02-09T21:21:26.551Z,73.03
2019-02-09T21:24:01.033Z,73.87
2019-02-09T21:26:35.712Z,73.03
2019-02-09T21:29:09.552Z,84.90
2019-02-09T21:31:44.031Z,69.40
2019-02-09T21:34:20.588Z,68.83
2019-02-09T21:36:56.185Z,71.60
2019-02-09T21:39:33.992Z,62.27
2019-02-09T21:42:07.321Z,63.47
2019-02-09T21:44:41.044Z,65.40
2019-02-09T21:47:15.621Z,68.20
2019-02-09T21:49:50.082Z,52.33
2019-02-09T21:52:24.291Z,49.17
2019-02-09T21:54:59.301Z,64.87
2019-02-09T21:57:37.629Z,71.10
2019-02-09T22:00:19.141Z,52.60
2019-02-09T22:02:54.168Z,58.10
2019-02-09T22:05:28.125Z,52.87
2019-02-09T22:08:02.064Z,60.43
2019-02-09T22:10:35.851Z,53.27
2019-02-09T22:13:14.174Z,50.90
2019-02-09T22:15:47.803Z,61.93
2019-02-09T22:18:22.634Z,54.97
2019-02-09T22:20:56.435Z,69.33
2019-02-09T22:23:31.715Z,62.00
2019-02-09T22:26:12.961Z,55.47
2019-02-09T22:28:42.611Z,43.13
2019-02-09T22:31:21.937Z,44.20
2019-02-09T22:33:54.495Z,53.67
2019-02-09T22:36:36.849Z,59.27
2019-02-09T22:39:06.773Z,57.57
2019-02-09T22:41:48.939Z,57.33
2019-02-09T22:44:19.941Z,81.10
2019-02-09T22:46:54.387Z,58.47
2019-02-09T22:49:28.543Z,68.57
2019-02-09T22:52:03.531Z,62.17
2019-02-09T22:54:37.513Z,68.23
2019-02-09T22:57:12.062Z,83.67
2019-02-09T22:59:46.868Z,59.90
2019-02-09T23:02:20.832Z,49.03
2019-02-09T23:05:23.630Z,58.40
2019-02-09T23:08:00.112Z,47.53
2019-02-09T23:10:33.777Z,43.97
2019-02-09T23:13:09.949Z,36.00
2019-02-09T23:15:44.181Z,35.63
2019-02-09T23:18:22.065Z,26.50
2019-02-09T23:20:56.553Z,36.07
2019-02-09T23:23:30.677Z,34.37
2019-02-09T23:26:04.685Z,37.50
2019-02-09T23:28:39.385Z,35.33
2019-02-09T23:31:13.522Z,38.73
2019-02-09T23:33:47.298Z,36.90
2019-02-09T23:36:22.302Z,25.90
2019-02-09T23:38:56.768Z,36.23
2019-02-09T23:41:31.082Z,30.90
2019-02-09T23:44:04.595Z,28.17
2019-02-09T23:46:38.968Z,27.97
2019-02-09T23:49:12.993Z,30.33
2019-02-09T23:51:46.789Z,41.63
2019-02-09T23:54:20.710Z,55.47
2019-02-09T23:56:54.974Z,57.13
2019-02-09T23:59:28.719Z,28.50
